Weather at Rafael Nuñez International Airport

Public forecast

Using degrees Celsius for public forecast. Weather courtesy of forecast.io.

Current aviation weather report (METAR) for Rafael Nuñez International Airport

Retrieved 2021/09/25 17:00 UTC (52 minutes ago):

SKCG 251700Z 31008KT 280V340 9999 SCT018 32/27 Q1010 RMK A2983

Aviation forecast (TAF) for Rafael Nuñez International Airport

Retrieved 2021/09/25 12:00 UTC (6 hours ago):

TAF SKCG 251030Z 2512/2612 VRB03KT 9999 FEW017 BKN070 BECMG 2518/2520 33008KT PROB40 TEMPO 2518/2521 TS SCT015CB BECMG 2601/2603 VRB02KT TX32/2518Z TN24/2610Z